sensor_id;sensor_type;location;lat;lon;timestamp;P1;durP1;ratioP1;P2;durP2;ratioP2
22103;SDS011;11218;48.886;9.426;2023-07-13T00:01:13;656.78;;;307.48;;
22103;SDS011;11218;48.886;9.426;2023-07-13T00:03:41;670.00;;;325.90;;
22103;SDS011;11218;48.886;9.426;2023-07-13T00:06:10;661.42;;;308.77;;
22103;SDS011;11218;48.886;9.426;2023-07-13T00:08:38;667.85;;;321.83;;
22103;SDS011;11218;48.886;9.426;2023-07-13T00:11:07;661.60;;;315.00;;
22103;SDS011;11218;48.886;9.426;2023-07-13T00:13:37;659.92;;;309.17;;
22103;SDS011;11218;48.886;9.426;2023-07-13T00:16:07;658.83;;;313.38;;
22103;SDS011;11218;48.886;9.426;2023-07-13T00:18:36;663.97;;;315.48;;
22103;SDS011;11218;48.886;9.426;2023-07-13T00:21:05;665.40;;;319.35;;
22103;SDS011;11218;48.886;9.426;2023-07-13T00:23:33;667.47;;;316.08;;
22103;SDS011;11218;48.886;9.426;2023-07-13T00:26:02;667.65;;;313.77;;
22103;SDS011;11218;48.886;9.426;2023-07-13T00:28:31;666.78;;;312.05;;
22103;SDS011;11218;48.886;9.426;2023-07-13T00:31:00;667.38;;;313.40;;
22103;SDS011;11218;48.886;9.426;2023-07-13T00:33:30;672.63;;;315.08;;
22103;SDS011;11218;48.886;9.426;2023-07-13T00:35:58;669.10;;;305.67;;
22103;SDS011;11218;48.886;9.426;2023-07-13T00:38:27;672.00;;;309.75;;
22103;SDS011;11218;48.886;9.426;2023-07-13T00:40:55;664.45;;;309.20;;
22103;SDS011;11218;48.886;9.426;2023-07-13T00:43:26;673.47;;;309.77;;
22103;SDS011;11218;48.886;9.426;2023-07-13T00:48:46;663.22;;;299.25;;
22103;SDS011;11218;48.886;9.426;2023-07-13T00:51:16;658.20;;;302.98;;
22103;SDS011;11218;48.886;9.426;2023-07-13T00:53:48;663.65;;;308.48;;
22103;SDS011;11218;48.886;9.426;2023-07-13T00:56:25;619.15;;;264.30;;
22103;SDS011;11218;48.886;9.426;2023-07-13T00:58:55;549.58;;;231.48;;
22103;SDS011;11218;48.886;9.426;2023-07-13T01:01:24;568.08;;;246.93;;
22103;SDS011;11218;48.886;9.426;2023-07-13T01:03:53;599.20;;;258.02;;
22103;SDS011;11218;48.886;9.426;2023-07-13T01:06:23;603.45;;;254.77;;
22103;SDS011;11218;48.886;9.426;2023-07-13T01:08:52;615.20;;;267.10;;
22103;SDS011;11218;48.886;9.426;2023-07-13T01:11:21;620.25;;;262.65;;
22103;SDS011;11218;48.886;9.426;2023-07-13T01:13:49;631.67;;;281.05;;
22103;SDS011;11218;48.886;9.426;2023-07-13T01:16:19;628.15;;;268.67;;
22103;SDS011;11218;48.886;9.426;2023-07-13T01:18:53;625.55;;;270.10;;
22103;SDS011;11218;48.886;9.426;2023-07-13T01:21:26;638.92;;;280.77;;
22103;SDS011;11218;48.886;9.426;2023-07-13T01:23:55;635.35;;;275.02;;
22103;SDS011;11218;48.886;9.426;2023-07-13T01:26:23;643.25;;;285.48;;
22103;SDS011;11218;48.886;9.426;2023-07-13T01:28:51;642.03;;;284.25;;
22103;SDS011;11218;48.886;9.426;2023-07-13T01:31:19;638.85;;;276.17;;
22103;SDS011;11218;48.886;9.426;2023-07-13T01:33:48;641.33;;;275.20;;
22103;SDS011;11218;48.886;9.426;2023-07-13T01:36:16;643.83;;;285.73;;
22103;SDS011;11218;48.886;9.426;2023-07-13T01:43:04;640.88;;;277.27;;
22103;SDS011;11218;48.886;9.426;2023-07-13T01:45:32;650.08;;;287.92;;
22103;SDS011;11218;48.886;9.426;2023-07-13T01:48:01;644.75;;;284.27;;
22103;SDS011;11218;48.886;9.426;2023-07-13T01:50:29;646.60;;;284.10;;
22103;SDS011;11218;48.886;9.426;2023-07-13T01:52:57;643.35;;;281.65;;
22103;SDS011;11218;48.886;9.426;2023-07-13T01:55:25;643.55;;;281.63;;
22103;SDS011;11218;48.886;9.426;2023-07-13T01:57:53;630.53;;;266.38;;
22103;SDS011;11218;48.886;9.426;2023-07-13T02:00:22;646.53;;;282.00;;
22103;SDS011;11218;48.886;9.426;2023-07-13T02:02:52;640.50;;;281.20;;
22103;SDS011;11218;48.886;9.426;2023-07-13T02:05:20;639.30;;;276.40;;
22103;SDS011;11218;48.886;9.426;2023-07-13T02:07:48;640.83;;;281.15;;
22103;SDS011;11218;48.886;9.426;2023-07-13T02:10:17;642.47;;;274.67;;
22103;SDS011;11218;48.886;9.426;2023-07-13T02:12:45;643.67;;;279.45;;
22103;SDS011;11218;48.886;9.426;2023-07-13T02:15:13;647.88;;;284.17;;
22103;SDS011;11218;48.886;9.426;2023-07-13T02:17:43;645.30;;;279.95;;
22103;SDS011;11218;48.886;9.426;2023-07-13T02:20:11;651.85;;;285.48;;
22103;SDS011;11218;48.886;9.426;2023-07-13T02:22:39;646.92;;;277.75;;
22103;SDS011;11218;48.886;9.426;2023-07-13T02:25:07;647.28;;;278.08;;
22103;SDS011;11218;48.886;9.426;2023-07-13T02:27:35;648.85;;;277.33;;
22103;SDS011;11218;48.886;9.426;2023-07-13T02:30:04;645.65;;;271.45;;
22103;SDS011;11218;48.886;9.426;2023-07-13T02:32:32;644.85;;;276.80;;
22103;SDS011;11218;48.886;9.426;2023-07-13T02:35:03;656.90;;;287.23;;
22103;SDS011;11218;48.886;9.426;2023-07-13T02:37:32;662.55;;;290.35;;
22103;SDS011;11218;48.886;9.426;2023-07-13T02:40:00;648.40;;;277.63;;
22103;SDS011;11218;48.886;9.426;2023-07-13T02:42:30;653.42;;;269.23;;
22103;SDS011;11218;48.886;9.426;2023-07-13T02:44:58;649.78;;;276.17;;
22103;SDS011;11218;48.886;9.426;2023-07-13T02:47:27;660.83;;;287.80;;
22103;SDS011;11218;48.886;9.426;2023-07-13T02:49:55;658.70;;;282.67;;
22103;SDS011;11218;48.886;9.426;2023-07-13T02:52:24;661.17;;;284.17;;
22103;SDS011;11218;48.886;9.426;2023-07-13T02:54:52;659.22;;;279.42;;
22103;SDS011;11218;48.886;9.426;2023-07-13T02:57:20;663.97;;;278.75;;
22103;SDS011;11218;48.886;9.426;2023-07-13T02:59:49;652.65;;;281.08;;
22103;SDS011;11218;48.886;9.426;2023-07-13T03:02:17;651.13;;;276.30;;
22103;SDS011;11218;48.886;9.426;2023-07-13T03:04:46;651.10;;;273.25;;
22103;SDS011;11218;48.886;9.426;2023-07-13T03:07:13;649.40;;;270.05;;
22103;SDS011;11218;48.886;9.426;2023-07-13T03:09:43;649.78;;;268.30;;
22103;SDS011;11218;48.886;9.426;2023-07-13T03:12:11;646.85;;;268.33;;
22103;SDS011;11218;48.886;9.426;2023-07-13T03:14:39;653.72;;;271.83;;
22103;SDS011;11218;48.886;9.426;2023-07-13T03:17:07;645.20;;;260.15;;
22103;SDS011;11218;48.886;9.426;2023-07-13T03:19:36;654.78;;;279.95;;
22103;SDS011;11218;48.886;9.426;2023-07-13T03:22:04;644.60;;;267.23;;
22103;SDS011;11218;48.886;9.426;2023-07-13T03:24:33;652.25;;;274.33;;
22103;SDS011;11218;48.886;9.426;2023-07-13T03:27:06;651.97;;;279.85;;
22103;SDS011;11218;48.886;9.426;2023-07-13T03:29:35;659.40;;;279.38;;
22103;SDS011;11218;48.886;9.426;2023-07-13T03:32:03;652.70;;;277.88;;
22103;SDS011;11218;48.886;9.426;2023-07-13T03:34:32;650.30;;;267.60;;
22103;SDS011;11218;48.886;9.426;2023-07-13T03:37:00;647.83;;;266.85;;
22103;SDS011;11218;48.886;9.426;2023-07-13T03:39:28;654.40;;;272.67;;
22103;SDS011;11218;48.886;9.426;2023-07-13T03:41:56;647.42;;;272.58;;
22103;SDS011;11218;48.886;9.426;2023-07-13T03:44:26;650.75;;;274.40;;
22103;SDS011;11218;48.886;9.426;2023-07-13T03:46:54;649.65;;;273.55;;
22103;SDS011;11218;48.886;9.426;2023-07-13T03:49:22;653.25;;;272.30;;
22103;SDS011;11218;48.886;9.426;2023-07-13T03:51:52;660.17;;;282.10;;
22103;SDS011;11218;48.886;9.426;2023-07-13T03:54:20;649.10;;;268.40;;
22103;SDS011;11218;48.886;9.426;2023-07-13T03:56:48;678.75;;;289.10;;
22103;SDS011;11218;48.886;9.426;2023-07-13T03:59:16;654.85;;;283.45;;
22103;SDS011;11218;48.886;9.426;2023-07-13T04:01:46;653.20;;;272.05;;
22103;SDS011;11218;48.886;9.426;2023-07-13T04:04:14;649.78;;;272.45;;
22103;SDS011;11218;48.886;9.426;2023-07-13T04:06:43;664.60;;;284.13;;
22103;SDS011;11218;48.886;9.426;2023-07-13T04:09:10;657.75;;;275.42;;
22103;SDS011;11218;48.886;9.426;2023-07-13T04:11:39;663.70;;;285.10;;
22103;SDS011;11218;48.886;9.426;2023-07-13T04:14:07;654.25;;;279.05;;
22103;SDS011;11218;48.886;9.426;2023-07-13T04:16:35;680.40;;;339.77;;
22103;SDS011;11218;48.886;9.426;2023-07-13T04:19:12;660.08;;;301.70;;
22103;SDS011;11218;48.886;9.426;2023-07-13T04:21:40;667.63;;;290.58;;
22103;SDS011;11218;48.886;9.426;2023-07-13T04:24:09;657.10;;;290.13;;
22103;SDS011;11218;48.886;9.426;2023-07-13T04:26:37;660.13;;;291.75;;
22103;SDS011;11218;48.886;9.426;2023-07-13T04:29:06;655.55;;;282.65;;
22103;SDS011;11218;48.886;9.426;2023-07-13T04:31:34;658.85;;;285.83;;
22103;SDS011;11218;48.886;9.426;2023-07-13T04:34:03;650.92;;;274.17;;
22103;SDS011;11218;48.886;9.426;2023-07-13T04:36:32;659.38;;;283.55;;
22103;SDS011;11218;48.886;9.426;2023-07-13T04:39:04;660.67;;;288.23;;
22103;SDS011;11218;48.886;9.426;2023-07-13T04:41:32;651.40;;;274.02;;
22103;SDS011;11218;48.886;9.426;2023-07-13T04:44:00;654.72;;;284.40;;
22103;SDS011;11218;48.886;9.426;2023-07-13T04:46:29;657.10;;;272.65;;
22103;SDS011;11218;48.886;9.426;2023-07-13T04:48:57;653.88;;;284.27;;
22103;SDS011;11218;48.886;9.426;2023-07-13T04:51:26;656.63;;;280.73;;
22103;SDS011;11218;48.886;9.426;2023-07-13T04:53:55;650.55;;;279.17;;
22103;SDS011;11218;48.886;9.426;2023-07-13T04:56:27;650.15;;;274.90;;
22103;SDS011;11218;48.886;9.426;2023-07-13T04:58:55;654.15;;;285.45;;
22103;SDS011;11218;48.886;9.426;2023-07-13T05:01:24;647.63;;;270.02;;
22103;SDS011;11218;48.886;9.426;2023-07-13T05:03:52;652.38;;;283.65;;
22103;SDS011;11218;48.886;9.426;2023-07-13T05:06:23;654.25;;;280.08;;
22103;SDS011;11218;48.886;9.426;2023-07-13T05:08:51;660.58;;;292.40;;
22103;SDS011;11218;48.886;9.426;2023-07-13T05:11:21;650.08;;;279.45;;
22103;SDS011;11218;48.886;9.426;2023-07-13T05:13:49;654.08;;;284.05;;
22103;SDS011;11218;48.886;9.426;2023-07-13T05:16:17;662.42;;;294.25;;
22103;SDS011;11218;48.886;9.426;2023-07-13T05:18:46;658.28;;;282.83;;
22103;SDS011;11218;48.886;9.426;2023-07-13T05:21:14;654.08;;;280.08;;
22103;SDS011;11218;48.886;9.426;2023-07-13T05:23:42;658.60;;;282.55;;
22103;SDS011;11218;48.886;9.426;2023-07-13T05:26:10;655.65;;;276.60;;
22103;SDS011;11218;48.886;9.426;2023-07-13T05:28:40;675.88;;;302.35;;
22103;SDS011;11218;48.886;9.426;2023-07-13T05:31:08;660.22;;;284.02;;
22103;SDS011;11218;48.886;9.426;2023-07-13T05:33:38;666.80;;;289.83;;
22103;SDS011;11218;48.886;9.426;2023-07-13T05:36:06;658.75;;;277.90;;
22103;SDS011;11218;48.886;9.426;2023-07-13T05:38:34;667.72;;;285.33;;
22103;SDS011;11218;48.886;9.426;2023-07-13T05:41:02;666.17;;;285.73;;
22103;SDS011;11218;48.886;9.426;2023-07-13T05:43:33;656.88;;;282.83;;
22103;SDS011;11218;48.886;9.426;2023-07-13T05:46:06;660.22;;;284.23;;
22103;SDS011;11218;48.886;9.426;2023-07-13T05:48:34;681.85;;;304.75;;
22103;SDS011;11218;48.886;9.426;2023-07-13T05:51:02;656.38;;;282.90;;
22103;SDS011;11218;48.886;9.426;2023-07-13T05:53:31;663.08;;;282.02;;
22103;SDS011;11218;48.886;9.426;2023-07-13T05:55:59;656.13;;;278.85;;
22103;SDS011;11218;48.886;9.426;2023-07-13T05:58:28;655.67;;;281.25;;
22103;SDS011;11218;48.886;9.426;2023-07-13T06:01:00;654.80;;;289.60;;
22103;SDS011;11218;48.886;9.426;2023-07-13T06:03:31;658.00;;;283.42;;
22103;SDS011;11218;48.886;9.426;2023-07-13T06:06:00;656.00;;;277.75;;
22103;SDS011;11218;48.886;9.426;2023-07-13T06:08:28;661.47;;;284.40;;
22103;SDS011;11218;48.886;9.426;2023-07-13T06:11:01;659.63;;;287.13;;
22103;SDS011;11218;48.886;9.426;2023-07-13T06:13:30;657.42;;;277.80;;
22103;SDS011;11218;48.886;9.426;2023-07-13T06:15:59;660.95;;;288.73;;
22103;SDS011;11218;48.886;9.426;2023-07-13T06:18:32;659.22;;;283.92;;
22103;SDS011;11218;48.886;9.426;2023-07-13T06:21:01;659.60;;;281.80;;
22103;SDS011;11218;48.886;9.426;2023-07-13T06:23:32;665.63;;;289.52;;
22103;SDS011;11218;48.886;9.426;2023-07-13T06:26:00;657.63;;;282.17;;
22103;SDS011;11218;48.886;9.426;2023-07-13T06:28:29;655.67;;;281.70;;
22103;SDS011;11218;48.886;9.426;2023-07-13T06:30:58;660.13;;;275.25;;
22103;SDS011;11218;48.886;9.426;2023-07-13T06:33:27;658.40;;;285.70;;
22103;SDS011;11218;48.886;9.426;2023-07-13T06:35:56;668.88;;;292.38;;
22103;SDS011;11218;48.886;9.426;2023-07-13T06:38:24;652.78;;;274.73;;
22103;SDS011;11218;48.886;9.426;2023-07-13T06:40:52;661.17;;;287.08;;
22103;SDS011;11218;48.886;9.426;2023-07-13T06:43:20;657.88;;;285.33;;
22103;SDS011;11218;48.886;9.426;2023-07-13T06:45:49;658.83;;;283.63;;
22103;SDS011;11218;48.886;9.426;2023-07-13T06:48:17;665.25;;;290.02;;
22103;SDS011;11218;48.886;9.426;2023-07-13T06:50:47;673.33;;;293.00;;
22103;SDS011;11218;48.886;9.426;2023-07-13T06:53:19;661.33;;;287.52;;
22103;SDS011;11218;48.886;9.426;2023-07-13T06:55:48;666.05;;;293.20;;
22103;SDS011;11218;48.886;9.426;2023-07-13T06:58:16;655.10;;;287.30;;
22103;SDS011;11218;48.886;9.426;2023-07-13T07:00:49;666.75;;;290.88;;
22103;SDS011;11218;48.886;9.426;2023-07-13T07:03:18;651.17;;;274.33;;
22103;SDS011;11218;48.886;9.426;2023-07-13T07:05:46;663.05;;;290.17;;
22103;SDS011;11218;48.886;9.426;2023-07-13T07:08:14;657.00;;;287.02;;
22103;SDS011;11218;48.886;9.426;2023-07-13T07:10:44;672.17;;;306.98;;
22103;SDS011;11218;48.886;9.426;2023-07-13T07:13:13;660.15;;;289.25;;
22103;SDS011;11218;48.886;9.426;2023-07-13T07:15:41;670.45;;;298.05;;
22103;SDS011;11218;48.886;9.426;2023-07-13T07:18:09;654.80;;;283.40;;
22103;SDS011;11218;48.886;9.426;2023-07-13T07:20:37;675.20;;;296.85;;
22103;SDS011;11218;48.886;9.426;2023-07-13T07:23:05;665.40;;;292.27;;
22103;SDS011;11218;48.886;9.426;2023-07-13T07:25:33;660.80;;;291.33;;
22103;SDS011;11218;48.886;9.426;2023-07-13T07:28:04;660.65;;;286.27;;
22103;SDS011;11218;48.886;9.426;2023-07-13T07:30:35;665.97;;;294.90;;
22103;SDS011;11218;48.886;9.426;2023-07-13T07:33:07;665.55;;;295.02;;
22103;SDS011;11218;48.886;9.426;2023-07-13T07:35:35;675.22;;;306.17;;
22103;SDS011;11218;48.886;9.426;2023-07-13T07:38:23;680.25;;;308.75;;
22103;SDS011;11218;48.886;9.426;2023-07-13T07:40:52;681.58;;;309.42;;
22103;SDS011;11218;48.886;9.426;2023-07-13T07:43:24;682.33;;;310.45;;
22103;SDS011;11218;48.886;9.426;2023-07-13T07:45:52;687.83;;;322.25;;
22103;SDS011;11218;48.886;9.426;2023-07-13T07:48:20;678.63;;;306.10;;
22103;SDS011;11218;48.886;9.426;2023-07-13T07:50:48;675.38;;;309.58;;
22103;SDS011;11218;48.886;9.426;2023-07-13T07:53:17;668.30;;;309.73;;
22103;SDS011;11218;48.886;9.426;2023-07-13T07:55:45;680.95;;;317.52;;
22103;SDS011;11218;48.886;9.426;2023-07-13T07:58:17;675.67;;;320.85;;
22103;SDS011;11218;48.886;9.426;2023-07-13T08:00:49;673.70;;;315.20;;
22103;SDS011;11218;48.886;9.426;2023-07-13T08:03:20;677.13;;;319.92;;
22103;SDS011;11218;48.886;9.426;2023-07-13T08:05:52;675.95;;;324.05;;
22103;SDS011;11218;48.886;9.426;2023-07-13T08:08:23;672.90;;;324.15;;
22103;SDS011;11218;48.886;9.426;2023-07-13T08:10:52;670.45;;;316.90;;
22103;SDS011;11218;48.886;9.426;2023-07-13T08:13:24;674.13;;;324.58;;
22103;SDS011;11218;48.886;9.426;2023-07-13T08:15:54;667.65;;;319.88;;
22103;SDS011;11218;48.886;9.426;2023-07-13T08:18:22;671.20;;;327.08;;
22103;SDS011;11218;48.886;9.426;2023-07-13T08:20:50;672.55;;;327.42;;
22103;SDS011;11218;48.886;9.426;2023-07-13T08:23:18;678.08;;;333.67;;
22103;SDS011;11218;48.886;9.426;2023-07-13T08:25:50;676.88;;;338.67;;
22103;SDS011;11218;48.886;9.426;2023-07-13T08:28:18;675.42;;;336.35;;
22103;SDS011;11218;48.886;9.426;2023-07-13T08:30:47;679.40;;;335.85;;
22103;SDS011;11218;48.886;9.426;2023-07-13T08:33:17;678.05;;;335.92;;
22103;SDS011;11218;48.886;9.426;2023-07-13T08:35:46;680.72;;;339.52;;
22103;SDS011;11218;48.886;9.426;2023-07-13T08:38:15;684.42;;;347.77;;
22103;SDS011;11218;48.886;9.426;2023-07-13T08:40:53;686.78;;;335.63;;
22103;SDS011;11218;48.886;9.426;2023-07-13T08:43:25;664.20;;;321.90;;
22103;SDS011;11218;48.886;9.426;2023-07-13T08:45:57;668.97;;;332.45;;
22103;SDS011;11218;48.886;9.426;2023-07-13T08:48:43;678.88;;;331.38;;
22103;SDS011;11218;48.886;9.426;2023-07-13T08:51:21;679.33;;;338.02;;
22103;SDS011;11218;48.886;9.426;2023-07-13T08:53:56;673.20;;;331.77;;
22103;SDS011;11218;48.886;9.426;2023-07-13T08:56:27;667.55;;;328.13;;
22103;SDS011;11218;48.886;9.426;2023-07-13T08:58:57;673.70;;;342.55;;
22103;SDS011;11218;48.886;9.426;2023-07-13T09:01:31;667.65;;;335.83;;
22103;SDS011;11218;48.886;9.426;2023-07-13T09:04:11;680.22;;;348.70;;
22103;SDS011;11218;48.886;9.426;2023-07-13T09:06:46;675.55;;;347.23;;
22103;SDS011;11218;48.886;9.426;2023-07-13T09:09:25;671.28;;;343.52;;
22103;SDS011;11218;48.886;9.426;2023-07-13T09:12:07;679.67;;;356.85;;
22103;SDS011;11218;48.886;9.426;2023-07-13T09:14:42;679.67;;;347.70;;
22103;SDS011;11218;48.886;9.426;2023-07-13T09:17:15;680.85;;;351.30;;
22103;SDS011;11218;48.886;9.426;2023-07-13T09:19:48;676.60;;;346.38;;
22103;SDS011;11218;48.886;9.426;2023-07-13T09:22:21;674.30;;;345.23;;
22103;SDS011;11218;48.886;9.426;2023-07-13T09:24:55;668.00;;;332.45;;
22103;SDS011;11218;48.886;9.426;2023-07-13T09:27:29;674.08;;;343.60;;
22103;SDS011;11218;48.886;9.426;2023-07-13T09:30:02;683.45;;;352.45;;
22103;SDS011;11218;48.886;9.426;2023-07-13T09:32:47;680.88;;;347.95;;
22103;SDS011;11218;48.886;9.426;2023-07-13T09:35:27;668.53;;;338.17;;
22103;SDS011;11218;48.886;9.426;2023-07-13T09:37:57;678.47;;;350.67;;
22103;SDS011;11218;48.886;9.426;2023-07-13T09:40:30;681.10;;;353.83;;
22103;SDS011;11218;48.886;9.426;2023-07-13T09:43:12;675.45;;;352.17;;
22103;SDS011;11218;48.886;9.426;2023-07-13T09:45:42;672.97;;;346.27;;
22103;SDS011;11218;48.886;9.426;2023-07-13T09:48:13;678.75;;;355.90;;
22103;SDS011;11218;48.886;9.426;2023-07-13T09:50:45;681.35;;;359.30;;
22103;SDS011;11218;48.886;9.426;2023-07-13T09:53:14;680.67;;;368.92;;
22103;SDS011;11218;48.886;9.426;2023-07-13T09:55:45;753.88;;;391.27;;
22103;SDS011;11218;48.886;9.426;2023-07-13T09:58:19;675.30;;;354.50;;
22103;SDS011;11218;48.886;9.426;2023-07-13T10:00:56;679.85;;;353.83;;
22103;SDS011;11218;48.886;9.426;2023-07-13T10:03:26;675.47;;;351.30;;
22103;SDS011;11218;48.886;9.426;2023-07-13T10:06:00;678.92;;;360.45;;
22103;SDS011;11218;48.886;9.426;2023-07-13T10:08:38;699.97;;;377.50;;
22103;SDS011;11218;48.886;9.426;2023-07-13T10:11:09;684.30;;;375.88;;
22103;SDS011;11218;48.886;9.426;2023-07-13T10:13:40;686.88;;;378.60;;
22103;SDS011;11218;48.886;9.426;2023-07-13T10:16:11;689.13;;;375.48;;
22103;SDS011;11218;48.886;9.426;2023-07-13T10:18:42;695.13;;;386.15;;
22103;SDS011;11218;48.886;9.426;2023-07-13T10:21:16;683.80;;;372.05;;
22103;SDS011;11218;48.886;9.426;2023-07-13T10:24:03;688.88;;;370.13;;
22103;SDS011;11218;48.886;9.426;2023-07-13T10:26:37;684.08;;;372.60;;
22103;SDS011;11218;48.886;9.426;2023-07-13T10:29:13;676.10;;;359.27;;
22103;SDS011;11218;48.886;9.426;2023-07-13T10:31:44;686.72;;;376.25;;
22103;SDS011;11218;48.886;9.426;2023-07-13T10:34:13;694.30;;;380.25;;
22103;SDS011;11218;48.886;9.426;2023-07-13T10:36:44;700.55;;;385.48;;
22103;SDS011;11218;48.886;9.426;2023-07-13T10:39:15;681.38;;;375.30;;
22103;SDS011;11218;48.886;9.426;2023-07-13T10:41:55;679.08;;;377.90;;
22103;SDS011;11218;48.886;9.426;2023-07-13T10:44:27;670.33;;;363.15;;
22103;SDS011;11218;48.886;9.426;2023-07-13T10:46:58;677.03;;;361.80;;
22103;SDS011;11218;48.886;9.426;2023-07-13T10:49:29;683.45;;;364.38;;
22103;SDS011;11218;48.886;9.426;2023-07-13T10:52:00;678.10;;;371.60;;
22103;SDS011;11218;48.886;9.426;2023-07-13T10:54:30;672.75;;;360.05;;
22103;SDS011;11218;48.886;9.426;2023-07-13T10:57:16;669.70;;;348.08;;
22103;SDS011;11218;48.886;9.426;2023-07-13T10:59:47;673.42;;;351.50;;
22103;SDS011;11218;48.886;9.426;2023-07-13T11:02:26;663.80;;;343.85;;
22103;SDS011;11218;48.886;9.426;2023-07-13T11:04:57;661.67;;;344.30;;
22103;SDS011;11218;48.886;9.426;2023-07-13T11:07:27;689.72;;;366.60;;
22103;SDS011;11218;48.886;9.426;2023-07-13T11:09:59;674.08;;;348.27;;
22103;SDS011;11218;48.886;9.426;2023-07-13T11:12:52;677.35;;;360.52;;
22103;SDS011;11218;48.886;9.426;2023-07-13T11:15:29;667.42;;;352.88;;
22103;SDS011;11218;48.886;9.426;2023-07-13T11:18:04;663.63;;;346.75;;
22103;SDS011;11218;48.886;9.426;2023-07-13T11:20:40;675.10;;;355.02;;
22103;SDS011;11218;48.886;9.426;2023-07-13T11:23:20;674.80;;;342.55;;
22103;SDS011;11218;48.886;9.426;2023-07-13T11:25:56;669.03;;;351.25;;
22103;SDS011;11218;48.886;9.426;2023-07-13T11:28:27;659.20;;;346.02;;
22103;SDS011;11218;48.886;9.426;2023-07-13T11:31:03;667.22;;;344.65;;
22103;SDS011;11218;48.886;9.426;2023-07-13T11:33:50;675.00;;;353.88;;
22103;SDS011;11218;48.886;9.426;2023-07-13T11:36:21;678.72;;;367.40;;
22103;SDS011;11218;48.886;9.426;2023-07-13T11:38:57;671.10;;;360.88;;
22103;SDS011;11218;48.886;9.426;2023-07-13T11:41:29;671.60;;;350.58;;
22103;SDS011;11218;48.886;9.426;2023-07-13T11:44:05;672.38;;;359.80;;
22103;SDS011;11218;48.886;9.426;2023-07-13T11:46:35;684.58;;;370.88;;
22103;SDS011;11218;48.886;9.426;2023-07-13T11:49:04;682.85;;;363.48;;
22103;SDS011;11218;48.886;9.426;2023-07-13T11:51:33;677.42;;;364.35;;
22103;SDS011;11218;48.886;9.426;2023-07-13T11:54:04;672.05;;;361.90;;
22103;SDS011;11218;48.886;9.426;2023-07-13T11:56:40;671.92;;;367.65;;
22103;SDS011;11218;48.886;9.426;2023-07-13T11:59:10;676.17;;;366.92;;
22103;SDS011;11218;48.886;9.426;2023-07-13T12:01:42;677.35;;;372.73;;
22103;SDS011;11218;48.886;9.426;2023-07-13T12:04:18;679.25;;;373.83;;
22103;SDS011;11218;48.886;9.426;2023-07-13T12:06:54;683.25;;;378.60;;
22103;SDS011;11218;48.886;9.426;2023-07-13T12:09:27;675.25;;;374.35;;
22103;SDS011;11218;48.886;9.426;2023-07-13T12:11:56;680.03;;;376.23;;
22103;SDS011;11218;48.886;9.426;2023-07-13T12:14:27;675.97;;;373.13;;
22103;SDS011;11218;48.886;9.426;2023-07-13T12:16:55;687.88;;;387.17;;
22103;SDS011;11218;48.886;9.426;2023-07-13T12:19:25;678.65;;;372.58;;
22103;SDS011;11218;48.886;9.426;2023-07-13T12:21:55;682.53;;;389.58;;
22103;SDS011;11218;48.886;9.426;2023-07-13T12:24:27;677.17;;;384.10;;
22103;SDS011;11218;48.886;9.426;2023-07-13T12:26:58;695.33;;;395.05;;
22103;SDS011;11218;48.886;9.426;2023-07-13T12:29:28;672.58;;;373.98;;
22103;SDS011;11218;48.886;9.426;2023-07-13T12:31:57;680.10;;;395.83;;
22103;SDS011;11218;48.886;9.426;2023-07-13T12:34:26;672.13;;;378.02;;
22103;SDS011;11218;48.886;9.426;2023-07-13T12:36:54;678.30;;;381.25;;
22103;SDS011;11218;48.886;9.426;2023-07-13T12:39:24;668.50;;;367.67;;
22103;SDS011;11218;48.886;9.426;2023-07-13T12:42:13;673.60;;;367.42;;
22103;SDS011;11218;48.886;9.426;2023-07-13T12:44:50;676.83;;;375.83;;
22103;SDS011;11218;48.886;9.426;2023-07-13T12:47:21;666.95;;;355.85;;
22103;SDS011;11218;48.886;9.426;2023-07-13T12:49:50;675.22;;;360.73;;
22103;SDS011;11218;48.886;9.426;2023-07-13T12:52:22;679.05;;;375.73;;
22103;SDS011;11218;48.886;9.426;2023-07-13T12:54:55;674.35;;;371.77;;
22103;SDS011;11218;48.886;9.426;2023-07-13T12:57:34;672.33;;;367.55;;
22103;SDS011;11218;48.886;9.426;2023-07-13T13:00:11;668.97;;;369.77;;
22103;SDS011;11218;48.886;9.426;2023-07-13T13:02:51;676.38;;;375.20;;
22103;SDS011;11218;48.886;9.426;2023-07-13T13:05:33;673.22;;;376.45;;
22103;SDS011;11218;48.886;9.426;2023-07-13T13:08:04;669.05;;;378.35;;
22103;SDS011;11218;48.886;9.426;2023-07-13T13:10:32;671.03;;;371.23;;
22103;SDS011;11218;48.886;9.426;2023-07-13T13:13:03;669.10;;;371.35;;
22103;SDS011;11218;48.886;9.426;2023-07-13T13:15:32;683.72;;;379.55;;
22103;SDS011;11218;48.886;9.426;2023-07-13T13:18:00;676.70;;;383.20;;
22103;SDS011;11218;48.886;9.426;2023-07-13T13:20:29;666.15;;;369.42;;
22103;SDS011;11218;48.886;9.426;2023-07-13T13:22:57;675.28;;;375.00;;
22103;SDS011;11218;48.886;9.426;2023-07-13T13:25:26;685.10;;;399.38;;
22103;SDS011;11218;48.886;9.426;2023-07-13T13:27:54;686.35;;;383.63;;
22103;SDS011;11218;48.886;9.426;2023-07-13T13:30:23;672.55;;;377.40;;
22103;SDS011;11218;48.886;9.426;2023-07-13T13:32:51;675.75;;;376.73;;
22103;SDS011;11218;48.886;9.426;2023-07-13T13:35:20;667.38;;;366.65;;
22103;SDS011;11218;48.886;9.426;2023-07-13T13:37:48;679.60;;;373.58;;
22103;SDS011;11218;48.886;9.426;2023-07-13T13:40:18;663.65;;;363.92;;
22103;SDS011;11218;48.886;9.426;2023-07-13T13:42:48;677.08;;;377.17;;
22103;SDS011;11218;48.886;9.426;2023-07-13T13:45:18;679.40;;;378.60;;
22103;SDS011;11218;48.886;9.426;2023-07-13T13:47:49;682.33;;;391.35;;
22103;SDS011;11218;48.886;9.426;2023-07-13T13:50:18;675.10;;;367.92;;
22103;SDS011;11218;48.886;9.426;2023-07-13T13:52:49;678.08;;;381.23;;
22103;SDS011;11218;48.886;9.426;2023-07-13T13:55:19;674.08;;;380.63;;
22103;SDS011;11218;48.886;9.426;2023-07-13T13:57:50;680.38;;;381.02;;
22103;SDS011;11218;48.886;9.426;2023-07-13T14:00:20;685.65;;;386.00;;
22103;SDS011;11218;48.886;9.426;2023-07-13T14:02:49;672.10;;;368.88;;
22103;SDS011;11218;48.886;9.426;2023-07-13T14:05:22;667.22;;;373.80;;
22103;SDS011;11218;48.886;9.426;2023-07-13T14:07:52;681.65;;;379.85;;
22103;SDS011;11218;48.886;9.426;2023-07-13T14:10:21;673.67;;;383.30;;
22103;SDS011;11218;48.886;9.426;2023-07-13T14:12:50;681.95;;;385.20;;
22103;SDS011;11218;48.886;9.426;2023-07-13T14:15:21;683.28;;;386.55;;
22103;SDS011;11218;48.886;9.426;2023-07-13T14:17:52;659.45;;;360.70;;
22103;SDS011;11218;48.886;9.426;2023-07-13T14:20:24;642.88;;;348.02;;
22103;SDS011;11218;48.886;9.426;2023-07-13T14:22:53;652.20;;;353.55;;